TimePDT,TemperatureF,Dew PointF,Humidity,Sea Level PressureIn,VisibilityMPH,Wind Direction,Wind SpeedMPH,Gust SpeedMPH,PrecipitationIn,Events,Conditions,WindDirDegrees,DateUTC
12:53 AM,50.0,39.9,68,30.25,10.0,ENE,3.5,-,N/A,,Clear,60,2012-10-05 07:53:00
1:53 AM,45.0,35.1,68,30.25,10.0,NE,4.6,-,N/A,,Clear,50,2012-10-05 08:53:00
2:53 AM,44.1,36.0,73,30.25,10.0,ENE,5.8,-,N/A,,Clear,60,2012-10-05 09:53:00
3:53 AM,45.0,36.0,71,30.25,10.0,ENE,5.8,-,N/A,,Clear,70,2012-10-05 10:53:00
4:53 AM,44.1,36.0,73,30.24,10.0,NE,8.1,-,N/A,,Clear,50,2012-10-05 11:53:00
5:53 AM,43.0,36.0,76,30.24,10.0,ENE,5.8,-,N/A,,Clear,60,2012-10-05 12:53:00
6:53 AM,42.1,36.0,79,30.25,10.0,ENE,5.8,-,N/A,,Clear,60,2012-10-05 13:53:00
7:53 AM,43.0,36.0,76,30.26,10.0,ENE,6.9,-,N/A,,Clear,60,2012-10-05 14:53:00
8:53 AM,48.9,37.9,66,30.26,10.0,ENE,9.2,-,N/A,,Clear,70,2012-10-05 15:53:00
9:53 AM,53.6,39.2,58,30.24,9.0,ENE,12.7,-,N/A,,Clear,70,2012-10-05 16:53:00
10:53 AM,59.0,41.0,51,30.25,9.0,East,12.7,-,N/A,,Clear,90,2012-10-05 17:53:00
11:53 AM,64.9,39.0,39,30.24,10.0,East,11.5,20.7,N/A,,Clear,80,2012-10-05 18:53:00
12:53 PM,69.1,28.9,22,30.23,9.0,NE,17.3,23.0,N/A,,Clear,40,2012-10-05 19:53:00
1:53 PM,71.1,27.0,19,30.21,9.0,NE,11.5,19.6,N/A,,Clear,40,2012-10-05 20:53:00
2:53 PM,71.1,32.0,24,30.20,10.0,East,13.8,-,N/A,,Clear,80,2012-10-05 21:53:00
3:53 PM,73.0,28.0,19,30.19,10.0,NE,10.4,-,N/A,,Clear,40,2012-10-05 22:53:00
4:53 PM,72.0,26.1,18,30.18,10.0,NE,10.4,-,N/A,,Clear,50,2012-10-05 23:53:00
5:53 PM,69.8,26.6,20,30.16,10.0,NNE,9.2,-,N/A,,Clear,30,2012-10-06 00:53:00
6:53 PM,66.0,27.0,23,30.17,10.0,NNE,4.6,-,N/A,,Clear,30,2012-10-06 01:53:00
7:53 PM,61.0,28.0,29,30.18,10.0,NE,5.8,-,N/A,,Clear,40,2012-10-06 02:53:00
8:53 PM,61.0,28.0,29,30.18,10.0,NNE,4.6,-,N/A,,Clear,30,2012-10-06 03:53:00
9:53 PM,55.9,30.0,37,30.19,10.0,Calm,Calm,-,N/A,,Clear,0,2012-10-06 04:53:00
10:53 PM,55.9,30.9,39,30.20,10.0,Calm,Calm,-,N/A,,Clear,0,2012-10-06 05:53:00
11:53 PM,54.0,30.0,40,30.20,10.0,NNE,3.5,-,N/A,,Clear,30,2012-10-06 06:53:00